Heat Index SAI AWOS Graphical Display Untitled Document
Bertrand Chaffee Hospital Heliport (2NK6) Springville, New York, USA
180
04:25
25/09/2017
00
N/A
N/A
30.16
N/A
1420
67(F), 19(C)
65(F), 18(C)
67 F
95%
CLR
7
N/A
0"
N/A
04:25 zulu Wind Calm, Altimeter 30.16
METAR K2NK6 250425Z AUTO 00000KT 7SM CLR 19/18 A3016 A02 P0000
METAR:
FAA Disclaimer--Advisory Use ONLY, not for flight info--
INFO:
Wind Direction:
Wind Speed:
Wind Gust:
Wind Variable:
Altimeter:
Dens Alt:
Elev:
Temp:
Dwpt:
Wind Chill
Rel Humidity:
Ceiling:
Visibility:
Prsnt Wea:
PCPN:
Remarks:
How to read the WebPage